createdAt,value
2022-11-27T00:02:17.698Z,11.43
2022-11-27T00:04:44.002Z,10.71
2022-11-27T00:07:10.418Z,12.85
2022-11-27T00:09:36.784Z,14.21
2022-11-27T00:12:03.180Z,13.26
2022-11-27T00:14:29.423Z,12.22
2022-11-27T00:16:55.678Z,12.11
2022-11-27T00:19:21.937Z,11.77
2022-11-27T00:21:48.212Z,12.08
2022-11-27T00:24:14.483Z,12.53
2022-11-27T00:26:40.758Z,12.31
2022-11-27T00:29:07.021Z,11.70
2022-11-27T00:31:33.352Z,12.14
2022-11-27T00:33:59.744Z,12.48
2022-11-27T00:36:25.999Z,12.30
2022-11-27T00:38:52.252Z,12.71
2022-11-27T00:41:18.575Z,12.25
2022-11-27T00:43:45.418Z,12.42
2022-11-27T00:46:12.015Z,12.35
2022-11-27T00:48:38.300Z,11.96
2022-11-27T00:51:04.588Z,12.61
2022-11-27T00:53:30.828Z,12.29
2022-11-27T00:55:57.082Z,12.57
2022-11-27T00:58:23.333Z,12.61
2022-11-27T01:00:49.586Z,12.17
2022-11-27T01:03:15.867Z,12.25
2022-11-27T01:05:42.219Z,11.39
2022-11-27T01:08:08.476Z,11.81
2022-11-27T01:10:34.737Z,11.69
2022-11-27T01:13:00.995Z,11.69
2022-11-27T01:15:27.249Z,12.37
2022-11-27T01:17:53.522Z,12.17
2022-11-27T01:20:19.780Z,11.83
2022-11-27T01:22:46.028Z,12.07
2022-11-27T01:25:12.266Z,11.80
2022-11-27T01:27:38.527Z,11.42
2022-11-27T01:30:04.815Z,11.61
2022-11-27T01:32:31.053Z,11.55
2022-11-27T01:34:57.293Z,11.71
2022-11-27T01:37:23.540Z,11.22
2022-11-27T01:39:49.794Z,11.26
2022-11-27T01:42:16.064Z,11.03
2022-11-27T01:44:42.400Z,11.49
2022-11-27T01:47:08.877Z,11.01
2022-11-27T01:49:35.140Z,11.21
2022-11-27T01:52:01.402Z,11.97
2022-11-27T01:54:27.669Z,11.46
2022-11-27T01:56:54.037Z,11.63
2022-11-27T01:59:20.304Z,12.00
2022-11-27T02:01:46.595Z,11.48
2022-11-27T02:04:12.885Z,11.91
2022-11-27T02:06:39.122Z,11.48
2022-11-27T02:09:05.397Z,11.64
2022-11-27T02:11:31.726Z,11.97
2022-11-27T02:13:57.960Z,11.89
2022-11-27T02:16:24.221Z,12.04
2022-11-27T02:18:50.528Z,12.92
2022-11-27T02:21:16.781Z,13.83
2022-11-27T02:23:43.049Z,13.83
2022-11-27T02:26:09.340Z,14.48
2022-11-27T02:28:35.598Z,14.72
2022-11-27T02:31:01.935Z,16.11
2022-11-27T02:33:28.253Z,15.65
2022-11-27T02:35:54.517Z,17.07
2022-11-27T02:38:20.792Z,16.78
2022-11-27T02:40:47.030Z,17.25
2022-11-27T02:43:13.380Z,17.37
2022-11-27T02:45:39.684Z,17.53
2022-11-27T02:48:05.934Z,17.62
2022-11-27T02:50:32.185Z,17.64
2022-11-27T02:52:58.465Z,17.86
2022-11-27T02:55:24.712Z,17.60
2022-11-27T02:57:50.979Z,17.66
2022-11-27T03:00:17.260Z,17.51
2022-11-27T03:02:43.607Z,17.06
2022-11-27T03:05:09.993Z,16.95
2022-11-27T03:07:36.405Z,17.02
2022-11-27T03:10:02.700Z,16.53
2022-11-27T03:12:28.965Z,15.01
2022-11-27T03:14:55.225Z,15.04
2022-11-27T03:17:21.505Z,15.56
2022-11-27T03:19:47.772Z,15.77
2022-11-27T03:22:14.046Z,15.84
2022-11-27T03:24:40.589Z,15.75
2022-11-27T03:27:07.131Z,15.58
2022-11-27T03:29:33.473Z,14.98
2022-11-27T03:31:59.762Z,15.69
2022-11-27T03:34:26.001Z,14.41
2022-11-27T03:36:52.272Z,13.78
2022-11-27T03:39:18.536Z,13.70
2022-11-27T03:41:44.900Z,13.51
2022-11-27T03:44:11.137Z,13.85
2022-11-27T03:46:37.460Z,13.33
2022-11-27T03:49:03.836Z,13.48
2022-11-27T03:51:30.112Z,13.33
2022-11-27T03:53:56.452Z,14.07
2022-11-27T03:56:22.720Z,13.50
2022-11-27T03:58:48.981Z,13.52
2022-11-27T04:01:15.267Z,13.54
2022-11-27T04:03:41.639Z,13.88
2022-11-27T04:06:07.979Z,13.72
2022-11-27T04:08:34.244Z,14.14
2022-11-27T04:11:00.492Z,14.18
2022-11-27T04:13:26.742Z,14.25
2022-11-27T04:15:53.036Z,14.08
2022-11-27T04:18:19.337Z,13.22
2022-11-27T04:20:45.603Z,13.24
2022-11-27T04:23:11.881Z,13.10
2022-11-27T04:25:38.141Z,13.41
2022-11-27T04:28:04.407Z,13.05
2022-11-27T04:30:30.672Z,13.00
2022-11-27T04:32:56.929Z,13.15
2022-11-27T04:35:23.197Z,13.23
2022-11-27T04:37:49.445Z,13.12
2022-11-27T04:40:15.713Z,13.14
2022-11-27T04:42:41.971Z,13.44
2022-11-27T04:45:08.229Z,13.51
2022-11-27T04:47:34.506Z,13.70
2022-11-27T04:50:00.784Z,13.68
2022-11-27T04:52:27.064Z,13.74
2022-11-27T04:54:59.631Z,13.59
2022-11-27T04:57:26.429Z,14.49
2022-11-27T04:59:52.668Z,14.44
2022-11-27T05:02:18.922Z,14.70
2022-11-27T05:04:45.200Z,15.25
2022-11-27T05:07:11.495Z,14.75
2022-11-27T05:09:37.775Z,16.96
2022-11-27T05:12:04.025Z,16.77
2022-11-27T05:14:30.293Z,16.46
2022-11-27T05:16:56.546Z,15.82
2022-11-27T05:19:22.820Z,15.59
2022-11-27T05:21:49.075Z,16.11
2022-11-27T05:24:15.336Z,16.17
2022-11-27T05:26:41.579Z,15.21
2022-11-27T05:29:07.852Z,15.54
2022-11-27T05:31:34.195Z,14.90
2022-11-27T05:34:00.521Z,15.51
2022-11-27T05:36:26.771Z,14.85
2022-11-27T05:38:53.043Z,15.18
2022-11-27T05:41:19.319Z,15.55
2022-11-27T05:43:45.581Z,14.81
2022-11-27T05:46:11.896Z,15.64
2022-11-27T05:48:38.158Z,14.56
2022-11-27T05:51:04.437Z,15.00
2022-11-27T05:53:30.709Z,14.44
2022-11-27T05:55:56.968Z,14.69
2022-11-27T05:58:23.221Z,15.10
2022-11-27T06:00:49.484Z,14.68
2022-11-27T06:03:15.749Z,15.14
2022-11-27T06:05:42.046Z,14.15
2022-11-27T06:08:08.288Z,14.12
2022-11-27T06:10:34.557Z,13.88
2022-11-27T06:13:00.803Z,14.78
2022-11-27T06:15:27.077Z,15.03
2022-11-27T06:17:53.327Z,15.51
2022-11-27T06:20:19.585Z,16.18
2022-11-27T06:22:45.827Z,15.75
2022-11-27T06:25:12.090Z,15.78
2022-11-27T06:27:38.407Z,15.92
2022-11-27T06:30:04.700Z,16.10
2022-11-27T06:32:30.989Z,15.77
2022-11-27T06:34:57.241Z,16.40
2022-11-27T06:37:23.535Z,16.90
2022-11-27T06:39:49.774Z,16.77
2022-11-27T06:42:16.041Z,17.18
2022-11-27T06:44:42.546Z,17.10
2022-11-27T06:47:09.003Z,17.18
2022-11-27T06:49:35.268Z,16.53
2022-11-27T06:52:01.519Z,16.87
2022-11-27T06:54:27.767Z,16.88
2022-11-27T06:56:54.025Z,17.00
2022-11-27T06:59:20.296Z,16.40
2022-11-27T07:01:46.606Z,17.09
2022-11-27T07:04:12.884Z,17.19
2022-11-27T07:06:39.164Z,16.76
2022-11-27T07:09:05.478Z,17.08
2022-11-27T07:11:31.736Z,17.01
2022-11-27T07:13:57.996Z,17.74
2022-11-27T07:16:24.313Z,17.38
2022-11-27T07:18:50.644Z,17.93
2022-11-27T07:21:16.921Z,17.70
2022-11-27T07:23:43.207Z,17.84
2022-11-27T07:26:09.473Z,17.46
2022-11-27T07:28:35.742Z,17.49
2022-11-27T07:31:02.005Z,17.24
2022-11-27T07:33:28.250Z,16.59
2022-11-27T07:35:54.509Z,17.45
2022-11-27T07:38:20.783Z,17.37
2022-11-27T07:40:47.040Z,17.53
2022-11-27T07:43:13.281Z,17.72
2022-11-27T07:45:39.624Z,17.15
2022-11-27T07:48:05.923Z,18.04
2022-11-27T07:50:32.169Z,18.09
2022-11-27T07:52:58.415Z,18.40
2022-11-27T07:55:24.680Z,17.61
2022-11-27T07:57:50.966Z,17.78
2022-11-27T08:00:17.229Z,17.59
2022-11-27T08:02:43.509Z,18.28
2022-11-27T08:05:12.624Z,17.66
2022-11-27T08:07:39.595Z,17.46
2022-11-27T08:10:05.901Z,17.78
2022-11-27T08:12:32.157Z,17.80
2022-11-27T08:14:58.426Z,17.77
2022-11-27T08:17:24.691Z,17.80
2022-11-27T08:19:51.001Z,17.56
2022-11-27T08:22:17.272Z,16.84
2022-11-27T08:24:43.563Z,16.37
2022-11-27T08:27:09.853Z,16.25
2022-11-27T08:29:36.172Z,17.00
2022-11-27T08:32:02.489Z,16.62
2022-11-27T08:34:28.789Z,16.14
2022-11-27T08:36:55.037Z,16.52
2022-11-27T08:39:21.450Z,16.39
2022-11-27T08:41:47.693Z,16.15
2022-11-27T08:44:13.960Z,16.16
2022-11-27T08:46:40.236Z,16.52
2022-11-27T08:49:06.488Z,16.83
2022-11-27T08:51:32.774Z,16.40
2022-11-27T08:53:59.059Z,17.03
2022-11-27T08:56:26.390Z,16.90
2022-11-27T08:58:52.642Z,16.49
2022-11-27T09:01:18.954Z,16.65
2022-11-27T09:03:45.345Z,16.22
2022-11-27T09:06:11.667Z,15.44
2022-11-27T09:08:37.930Z,15.75
2022-11-27T09:11:04.203Z,15.61
2022-11-27T09:13:30.481Z,15.43
2022-11-27T09:15:56.782Z,14.30
2022-11-27T09:18:23.027Z,13.59
2022-11-27T09:20:49.282Z,13.10
2022-11-27T09:23:15.521Z,12.37
2022-11-27T09:25:41.802Z,12.24
2022-11-27T09:28:08.064Z,12.89
2022-11-27T09:30:34.316Z,13.36
2022-11-27T09:33:00.584Z,13.08
2022-11-27T09:35:26.864Z,10.40
2022-11-27T09:37:53.173Z,8.24
2022-11-27T09:40:19.445Z,7.33
2022-11-27T09:42:45.701Z,6.98
2022-11-27T09:45:11.962Z,7.05
2022-11-27T09:47:41.421Z,7.01
2022-11-27T09:50:08.102Z,6.80
2022-11-27T09:52:34.354Z,6.97
2022-11-27T09:55:00.623Z,7.50
2022-11-27T09:57:26.891Z,8.38
2022-11-27T09:59:53.141Z,7.76
2022-11-27T10:02:19.478Z,7.56
2022-11-27T10:05:06.232Z,6.96
2022-11-27T10:07:32.031Z,8.03
2022-11-27T10:09:58.336Z,7.13
2022-11-27T10:12:24.577Z,6.59
2022-11-27T10:14:50.875Z,6.44
2022-11-27T10:17:17.146Z,5.71
2022-11-27T10:19:43.395Z,5.65
2022-11-27T10:22:09.656Z,6.62
2022-11-27T10:24:35.907Z,7.85
2022-11-27T10:27:02.172Z,7.86
2022-11-27T10:29:28.442Z,8.73
2022-11-27T10:31:54.856Z,8.39
2022-11-27T10:34:21.162Z,8.14
2022-11-27T10:36:47.409Z,9.40
2022-11-27T10:39:13.641Z,9.61
2022-11-27T10:41:49.382Z,8.17
2022-11-27T10:44:16.108Z,8.54
2022-11-27T10:46:42.353Z,8.76
2022-11-27T10:49:08.620Z,8.37
2022-11-27T10:51:34.862Z,8.98
2022-11-27T10:54:01.117Z,10.19
2022-11-27T10:56:27.349Z,10.27
2022-11-27T10:58:53.624Z,10.53
2022-11-27T11:01:19.937Z,10.54
2022-11-27T11:03:46.277Z,10.38
2022-11-27T11:06:20.844Z,10.35
2022-11-27T11:08:48.369Z,10.67
2022-11-27T11:11:14.615Z,10.57
2022-11-27T11:13:40.866Z,10.30
2022-11-27T11:16:09.798Z,10.26
2022-11-27T11:18:38.444Z,10.34
2022-11-27T11:21:04.686Z,10.45
2022-11-27T11:23:30.959Z,10.15
2022-11-27T11:25:57.214Z,9.93
2022-11-27T11:28:23.469Z,9.97
2022-11-27T11:30:49.713Z,10.51
2022-11-27T11:33:15.998Z,9.85
2022-11-27T11:35:42.257Z,9.97
2022-11-27T11:38:08.493Z,9.91
2022-11-27T11:40:34.838Z,9.19
2022-11-27T11:43:01.126Z,9.13
2022-11-27T11:45:31.205Z,9.70
2022-11-27T11:47:58.821Z,9.42
2022-11-27T11:50:25.085Z,9.32
2022-11-27T11:52:51.417Z,9.43
2022-11-27T11:55:17.657Z,9.46
2022-11-27T11:57:43.931Z,9.50
2022-11-27T12:00:10.187Z,9.74
2022-11-27T12:02:36.473Z,9.90
2022-11-27T12:05:02.778Z,10.39
2022-11-27T12:07:29.092Z,9.87
2022-11-27T12:09:55.382Z,9.08
2022-11-27T12:12:21.656Z,8.57
2022-11-27T12:14:47.906Z,9.06
2022-11-27T12:17:14.173Z,9.12
2022-11-27T12:19:40.445Z,10.21
2022-11-27T12:22:06.711Z,10.06
2022-11-27T12:24:32.968Z,9.77
2022-11-27T12:26:59.233Z,9.50
2022-11-27T12:29:25.483Z,9.60
2022-11-27T12:31:51.776Z,10.22
2022-11-27T12:34:18.075Z,10.10
2022-11-27T12:36:44.341Z,10.43
2022-11-27T12:39:10.596Z,10.80
2022-11-27T12:41:36.917Z,10.80
2022-11-27T12:44:03.153Z,10.44
2022-11-27T12:46:29.429Z,10.58
2022-11-27T12:48:55.841Z,10.19
2022-11-27T12:51:22.092Z,9.98
2022-11-27T12:53:48.356Z,9.81
2022-11-27T12:56:14.607Z,9.86
2022-11-27T12:58:40.886Z,9.73
2022-11-27T13:01:07.168Z,9.96
2022-11-27T13:03:33.477Z,9.67
2022-11-27T13:05:59.733Z,9.74
2022-11-27T13:08:25.989Z,9.47
2022-11-27T13:10:52.257Z,9.24
2022-11-27T13:13:18.526Z,10.25
2022-11-27T13:15:44.789Z,9.89
2022-11-27T13:18:11.062Z,10.23
2022-11-27T13:20:37.305Z,9.97
2022-11-27T13:23:03.584Z,9.85
2022-11-27T13:25:29.830Z,9.17
2022-11-27T13:27:56.100Z,9.55
2022-11-27T13:30:22.363Z,9.35
2022-11-27T13:32:48.715Z,9.43
2022-11-27T13:35:14.988Z,9.84
2022-11-27T13:37:41.231Z,9.76
2022-11-27T13:40:07.477Z,9.80
2022-11-27T13:42:33.781Z,9.92
2022-11-27T13:45:00.081Z,9.92
2022-11-27T13:47:26.364Z,9.50
2022-11-27T13:49:52.648Z,8.28
2022-11-27T13:52:18.887Z,8.30
2022-11-27T13:54:45.366Z,8.05
2022-11-27T13:57:11.781Z,7.79
2022-11-27T13:59:39.453Z,8.21
2022-11-27T14:02:06.070Z,9.39
2022-11-27T14:04:32.411Z,9.79
2022-11-27T14:06:58.661Z,9.76
2022-11-27T14:09:24.932Z,9.63
2022-11-27T14:11:51.200Z,9.95
2022-11-27T14:14:17.459Z,9.89
2022-11-27T14:16:43.697Z,9.82
2022-11-27T14:19:09.953Z,10.20
2022-11-27T14:21:36.213Z,10.22
2022-11-27T14:24:02.470Z,10.39
2022-11-27T14:26:28.728Z,9.73
2022-11-27T14:28:55.021Z,10.01
2022-11-27T14:31:21.373Z,9.53
2022-11-27T14:34:13.666Z,9.80
2022-11-27T14:36:33.952Z,9.69
2022-11-27T14:39:00.225Z,9.73
2022-11-27T14:41:26.487Z,9.59
2022-11-27T14:43:52.783Z,9.70
2022-11-27T14:46:19.141Z,10.23
2022-11-27T14:48:45.468Z,9.60
2022-11-27T14:51:11.724Z,9.04
2022-11-27T14:53:38.112Z,8.76
2022-11-27T14:56:04.365Z,8.82
2022-11-27T14:58:30.667Z,9.13
2022-11-27T15:00:56.914Z,9.17
2022-11-27T15:03:23.210Z,9.45
2022-11-27T15:05:49.521Z,8.80
2022-11-27T15:08:15.848Z,9.26
2022-11-27T15:10:42.225Z,9.08
2022-11-27T15:13:08.469Z,8.69
2022-11-27T15:15:34.777Z,8.46
2022-11-27T15:18:01.117Z,8.62
2022-11-27T15:20:27.390Z,8.49
2022-11-27T15:22:53.678Z,8.64
2022-11-27T15:25:19.943Z,8.72
2022-11-27T15:27:46.200Z,9.25
2022-11-27T15:30:12.514Z,9.35
2022-11-27T15:32:38.848Z,9.41
2022-11-27T15:35:05.121Z,9.85
2022-11-27T15:37:31.384Z,9.78
2022-11-27T15:39:57.680Z,9.85
2022-11-27T15:42:23.972Z,10.32
2022-11-27T15:44:50.249Z,10.16
2022-11-27T15:47:16.521Z,9.85
2022-11-27T15:49:42.850Z,10.98
2022-11-27T15:52:09.127Z,10.50
2022-11-27T15:54:35.386Z,10.07
2022-11-27T15:57:01.651Z,9.65
2022-11-27T15:59:28.167Z,9.80
2022-11-27T16:01:54.619Z,11.13
2022-11-27T16:04:20.957Z,9.81
2022-11-27T16:06:47.227Z,9.58
2022-11-27T16:09:13.520Z,9.17
2022-11-27T16:11:39.819Z,9.73
2022-11-27T16:14:06.082Z,9.43
2022-11-27T16:16:32.413Z,9.05
2022-11-27T16:18:58.732Z,12.19
2022-11-27T16:21:29.460Z,14.33
2022-11-27T16:23:56.278Z,11.48
2022-11-27T16:26:22.552Z,12.93
2022-11-27T16:28:48.803Z,11.85
2022-11-27T16:31:15.133Z,11.08
2022-11-27T16:33:41.436Z,9.88
2022-11-27T16:36:07.682Z,10.74
2022-11-27T16:38:33.935Z,9.76
2022-11-27T16:41:00.201Z,10.13
2022-11-27T16:43:26.453Z,10.84
2022-11-27T16:45:52.798Z,11.75
2022-11-27T16:48:19.102Z,12.15
2022-11-27T16:50:45.364Z,11.90
2022-11-27T16:53:11.612Z,11.69
2022-11-27T16:55:37.883Z,11.49
2022-11-27T16:58:04.139Z,11.62
2022-11-27T17:00:30.400Z,12.47
2022-11-27T17:02:56.692Z,12.41
2022-11-27T17:05:22.975Z,12.41
2022-11-27T17:07:49.292Z,12.32
2022-11-27T17:10:15.564Z,13.51
2022-11-27T17:12:41.864Z,20.26
2022-11-27T17:15:08.139Z,22.67
2022-11-27T17:17:39.778Z,17.64
2022-11-27T17:20:06.469Z,15.17
2022-11-27T17:22:32.751Z,15.74
2022-11-27T17:24:59.002Z,15.83
2022-11-27T17:27:25.249Z,15.08
2022-11-27T17:29:51.521Z,14.85
2022-11-27T17:32:17.799Z,21.62
2022-11-27T17:34:44.071Z,22.32
2022-11-27T17:37:10.337Z,20.44
2022-11-27T17:39:36.663Z,19.93
2022-11-27T17:42:02.943Z,18.90
2022-11-27T17:44:29.198Z,19.13
2022-11-27T17:46:55.472Z,19.34
2022-11-27T17:49:21.757Z,20.76
2022-11-27T17:51:48.018Z,24.11
2022-11-27T17:54:14.285Z,25.99
2022-11-27T17:56:40.593Z,25.56
2022-11-27T17:59:06.868Z,23.60
2022-11-27T18:01:33.172Z,21.91
2022-11-27T18:03:59.572Z,22.20
2022-11-27T18:06:25.823Z,21.52
2022-11-27T18:08:52.088Z,21.29
2022-11-27T18:11:18.423Z,20.34
2022-11-27T18:13:44.699Z,19.70
2022-11-27T18:16:11.033Z,19.10
2022-11-27T18:18:37.321Z,18.67
2022-11-27T18:21:03.588Z,19.05
2022-11-27T18:23:29.893Z,18.94
2022-11-27T18:25:56.167Z,19.48
2022-11-27T18:28:22.433Z,19.37
2022-11-27T18:30:48.713Z,20.01
2022-11-27T18:33:15.005Z,20.13
2022-11-27T18:35:41.295Z,19.16
2022-11-27T18:38:07.575Z,19.19
2022-11-27T18:40:33.987Z,18.85
2022-11-27T18:43:00.260Z,18.68
2022-11-27T18:45:33.308Z,19.15
2022-11-27T18:48:01.388Z,18.97
2022-11-27T18:50:29.875Z,18.01
2022-11-27T18:52:56.310Z,17.52
2022-11-27T18:55:22.573Z,17.29
2022-11-27T18:57:48.852Z,16.90
2022-11-27T19:00:15.108Z,16.48
2022-11-27T19:02:41.434Z,16.89
2022-11-27T19:05:07.690Z,17.59
2022-11-27T19:07:34.000Z,16.81
2022-11-27T19:10:00.321Z,19.36
2022-11-27T19:12:26.588Z,21.70
2022-11-27T19:14:52.882Z,24.79
2022-11-27T19:17:19.164Z,25.54
2022-11-27T19:20:00.782Z,24.17
2022-11-27T19:22:27.087Z,23.74
2022-11-27T19:24:53.339Z,22.76
2022-11-27T19:27:19.613Z,23.09
2022-11-27T19:29:45.897Z,25.57
2022-11-27T19:32:12.210Z,26.52
2022-11-27T19:34:38.719Z,25.92
2022-11-27T19:37:05.101Z,24.71
2022-11-27T19:39:31.357Z,24.43
2022-11-27T19:41:57.617Z,23.23
2022-11-27T19:44:23.893Z,21.11
2022-11-27T19:46:50.162Z,20.35
2022-11-27T19:49:16.437Z,19.82
2022-11-27T19:51:42.695Z,19.99
2022-11-27T19:54:10.535Z,19.43
2022-11-27T19:56:37.078Z,19.29
2022-11-27T19:59:03.335Z,21.36
2022-11-27T20:01:29.700Z,21.74
2022-11-27T20:03:56.007Z,22.88
2022-11-27T20:06:22.290Z,23.96
2022-11-27T20:08:48.572Z,25.04
2022-11-27T20:11:14.851Z,24.15
2022-11-27T20:13:41.191Z,23.11
2022-11-27T20:16:07.544Z,23.83
2022-11-27T20:18:33.851Z,23.26
2022-11-27T20:21:00.121Z,22.46
2022-11-27T20:23:26.383Z,22.60
2022-11-27T20:25:52.656Z,22.79
2022-11-27T20:28:18.909Z,22.39
2022-11-27T20:30:45.154Z,22.54
2022-11-27T20:33:11.406Z,22.32
2022-11-27T20:35:37.661Z,22.74
2022-11-27T20:38:03.969Z,22.73
2022-11-27T20:40:30.336Z,24.42
2022-11-27T20:42:56.602Z,24.47
2022-11-27T20:45:22.914Z,23.21
2022-11-27T20:47:49.199Z,22.99
2022-11-27T20:50:15.477Z,24.33
2022-11-27T20:52:41.751Z,23.92
2022-11-27T20:55:08.100Z,22.74
2022-11-27T20:57:34.381Z,22.38
2022-11-27T21:00:00.735Z,23.27
2022-11-27T21:02:27.253Z,22.20
2022-11-27T21:04:53.606Z,22.28
2022-11-27T21:07:19.955Z,21.66
2022-11-27T21:09:46.231Z,20.87
2022-11-27T21:12:12.498Z,20.84
2022-11-27T21:14:38.759Z,20.50
2022-11-27T21:17:05.492Z,20.63
2022-11-27T21:19:31.852Z,21.17
2022-11-27T21:21:58.128Z,21.88
2022-11-27T21:24:24.381Z,21.49
2022-11-27T21:26:50.748Z,22.04
2022-11-27T21:29:17.057Z,22.05
2022-11-27T21:31:46.717Z,22.13
2022-11-27T21:34:13.813Z,21.60
2022-11-27T21:36:40.100Z,21.88
2022-11-27T21:39:06.376Z,22.28
2022-11-27T21:41:32.628Z,22.49
2022-11-27T21:43:58.888Z,22.19
2022-11-27T21:46:25.196Z,23.12
2022-11-27T21:48:53.613Z,23.15
2022-11-27T21:51:19.884Z,22.85
2022-11-27T21:53:46.176Z,22.75
2022-11-27T21:56:12.492Z,22.69
2022-11-27T21:58:38.776Z,22.63
2022-11-27T22:01:05.068Z,22.57
2022-11-27T22:03:31.387Z,23.40
2022-11-27T22:05:57.649Z,22.85
2022-11-27T22:08:23.905Z,24.49
2022-11-27T22:10:50.200Z,23.69
2022-11-27T22:13:16.510Z,23.69
2022-11-27T22:15:42.777Z,24.13
2022-11-27T22:18:09.040Z,24.30
2022-11-27T22:20:35.320Z,24.73
2022-11-27T22:23:01.597Z,24.80
2022-11-27T22:25:27.849Z,24.27
2022-11-27T22:27:54.094Z,23.71
2022-11-27T22:30:20.382Z,24.18
2022-11-27T22:32:46.689Z,24.28
2022-11-27T22:35:12.931Z,24.83
2022-11-27T22:37:39.203Z,24.03
2022-11-27T22:40:05.467Z,23.06
2022-11-27T22:42:31.744Z,22.60
2022-11-27T22:44:58.082Z,22.05
2022-11-27T22:47:24.327Z,21.08
2022-11-27T22:49:50.620Z,21.36
2022-11-27T22:52:16.887Z,21.02
2022-11-27T22:54:43.284Z,21.61
2022-11-27T22:57:09.716Z,21.37
2022-11-27T22:59:35.965Z,22.34
2022-11-27T23:02:02.294Z,21.07
2022-11-27T23:04:28.614Z,21.03
2022-11-27T23:06:54.872Z,21.46
2022-11-27T23:09:21.125Z,21.16
2022-11-27T23:11:47.384Z,21.06
2022-11-27T23:14:13.649Z,21.20
2022-11-27T23:16:40.034Z,20.77
2022-11-27T23:19:06.416Z,21.12
2022-11-27T23:21:32.739Z,20.48
2022-11-27T23:23:59.041Z,20.23
2022-11-27T23:26:25.297Z,20.66
2022-11-27T23:28:51.555Z,20.92
2022-11-27T23:31:33.504Z,20.52
2022-11-27T23:33:59.828Z,20.35
2022-11-27T23:36:26.081Z,19.85
2022-11-27T23:38:52.364Z,18.61
2022-11-27T23:41:18.641Z,18.57
2022-11-27T23:43:44.902Z,18.78
2022-11-27T23:46:11.202Z,18.71
2022-11-27T23:48:37.541Z,18.97
2022-11-27T23:51:03.808Z,19.44
2022-11-27T23:53:30.066Z,20.28
2022-11-27T23:55:56.309Z,20.59
2022-11-27T23:58:22.572Z,21.13
